Time;durP1;ratioP1;P1;durP2;ratioP2;P2;SDS_P1;SDS_P2;PMS_P1;PMS_P2;Temp;Humidity;BMP_temperature;BMP_pressure;BME280_temperature;BME280_humidity;BME280_pressure;Samples;Min_cycle;Max_cycle;Signal;HPM_P1;HPM_P2
2023/04/06 00:00:30;;;;;;;13.40;9.40;;;22.60;54.30;;;;;;222451;1255;23770;-48
2023/04/06 00:05:49;;;;;;;10.40;8.50;;;22.60;54.40;;;;;;222315;1263;24313;-49
2023/04/06 00:10:53;;;;;;;14.40;9.10;;;22.70;54.30;;;;;;222353;1263;22521;-50
2023/04/06 00:15:58;;;;;;;11.40;8.50;;;22.70;54.20;;;;;;222495;1257;24247;-48
2023/04/06 00:21:03;;;;;;;14.50;9.40;;;22.60;54.60;;;;;;222270;1253;22523;-47
2023/04/06 00:26:08;;;;;;;11.20;8.40;;;22.60;53.80;;;;;;222272;1256;25617;-47
2023/04/06 00:31:12;;;;;;;13.80;9.80;;;22.60;54.30;;;;;;226048;1262;25239;-46
2023/04/06 00:36:16;;;;;;;11.80;9.00;;;22.70;53.70;;;;;;228896;1262;22523;-48
2023/04/06 00:41:20;;;;;;;12.90;9.20;;;22.70;53.20;;;;;;223773;1262;22528;-53
2023/04/06 00:46:24;;;;;;;10.50;9.00;;;22.70;53.00;;;;;;222217;1262;22522;-47
2023/04/06 00:51:28;;;;;;;11.20;9.80;;;22.50;53.40;;;;;;222195;1254;22747;-48
2023/04/06 00:56:33;;;;;;;13.20;9.20;;;22.30;53.60;;;;;;222449;1260;26699;-50
2023/04/06 01:01:37;;;;;;;13.50;9.50;;;22.30;53.50;;;;;;222372;1262;22638;-46
2023/04/06 01:06:51;;;;;;;12.60;10.20;;;22.20;53.70;;;;;;222346;1256;22505;-47
2023/04/06 01:11:58;;;;;;;11.50;9.50;;;22.20;53.60;;;;;;222137;1262;22511;-50
2023/04/06 01:17:05;;;;;;;12.60;9.20;;;22.10;53.80;;;;;;222119;1267;24342;-48
2023/04/06 01:22:17;;;;;;;11.10;9.90;;;22.10;53.30;;;;;;222200;1261;22514;-52
2023/04/06 01:27:31;;;;;;;13.50;9.70;;;22.00;53.80;;;;;;222413;1255;22511;-49
2023/04/06 01:32:55;;;;;;;11.70;9.70;;;22.00;53.60;;;;;;222134;1257;22508;-53
2023/04/06 01:38:18;;;;;;;11.70;9.80;;;22.00;53.50;;;;;;222051;1258;22517;-49
2023/04/06 01:43:23;;;;;;;13.00;10.00;;;21.90;53.50;;;;;;222459;1255;23928;-47
2023/04/06 01:48:40;;;;;;;13.90;10.10;;;21.80;53.50;;;;;;222420;1253;22518;-48
2023/04/06 01:54:17;;;;;;;13.40;9.60;;;21.80;53.60;;;;;;222161;1256;22659;-46
2023/04/06 01:59:51;;;;;;;14.40;10.70;;;21.80;53.40;;;;;;222158;1255;22976;-46
2023/04/06 02:05:05;;;;;;;12.20;9.70;;;21.70;53.60;;;;;;222519;1264;24220;-45
2023/04/06 02:10:14;;;;;;;13.80;10.10;;;21.70;54.00;;;;;;222264;1257;24207;-51
2023/04/06 02:15:19;;;;;;;15.30;9.90;;;21.60;53.40;;;;;;222326;1262;22602;-46
2023/04/06 02:20:23;;;;;;;12.90;9.70;;;21.50;53.80;;;;;;222479;1256;22612;-47
2023/04/06 02:25:28;;;;;;;13.10;8.60;;;21.60;54.30;;;;;;222335;1265;25233;-47
2023/04/06 02:30:32;;;;;;;11.90;9.40;;;21.80;53.90;;;;;;222023;1254;22642;-48
2023/04/06 02:35:36;;;;;;;13.80;9.60;;;21.90;53.30;;;;;;230119;1262;23065;-48
2023/04/06 02:40:40;;;;;;;9.60;8.60;;;22.20;52.60;;;;;;230074;1266;22192;-47
2023/04/06 02:45:58;;;;;;;11.00;9.50;;;22.40;51.80;;;;;;222350;1255;22712;-48
2023/04/06 02:51:03;;;;;;;11.40;8.90;;;22.40;52.20;;;;;;222283;1256;22567;-48
2023/04/06 02:56:08;;;;;;;9.90;8.70;;;22.40;51.90;;;;;;222178;1260;22734;-49
2023/04/06 03:01:20;;;;;;;11.10;9.50;;;22.30;52.20;;;;;;222303;1256;22500;-49
2023/04/06 03:06:28;;;;;;;12.40;9.40;;;22.30;51.70;;;;;;222267;1255;25361;-50
2023/04/06 03:11:36;;;;;;;12.20;9.70;;;22.30;51.90;;;;;;222123;1265;25995;-48
2023/04/06 03:16:40;;;;;;;12.10;9.30;;;22.30;51.80;;;;;;222398;1256;22514;-47
2023/04/06 03:21:44;;;;;;;11.90;9.20;;;22.30;52.00;;;;;;221595;1258;22521;-49
2023/04/06 03:26:49;;;;;;;11.10;9.10;;;22.20;51.60;;;;;;221444;1266;22591;-46
2023/04/06 03:31:54;;;;;;;11.00;9.30;;;22.20;51.50;;;;;;221416;1259;24437;-45
2023/04/06 03:37:13;;;;;;;10.90;8.80;;;22.20;51.50;;;;;;221508;1266;22600;-50
2023/04/06 03:42:21;;;;;;;14.50;9.90;;;22.20;51.50;;;;;;221473;1265;22517;-47
2023/04/06 03:47:33;;;;;;;9.80;8.40;;;22.20;51.60;;;;;;222409;1253;22507;-50
2023/04/06 03:52:39;;;;;;;12.30;9.90;;;22.10;51.40;;;;;;222425;1262;23117;-48
2023/04/06 03:57:43;;;;;;;11.30;8.70;;;22.10;51.40;;;;;;222181;1256;22828;-47
2023/04/06 04:02:47;;;;;;;12.30;9.90;;;22.10;51.50;;;;;;222444;1253;23883;-50
2023/04/06 04:07:52;;;;;;;11.70;8.80;;;22.10;51.50;;;;;;222369;1256;22507;-46
2023/04/06 04:12:59;;;;;;;11.30;9.00;;;22.20;52.00;;;;;;222147;1254;24177;-46
2023/04/06 04:18:03;;;;;;;11.70;9.50;;;22.20;51.50;;;;;;222429;1263;22636;-47
2023/04/06 04:23:08;;;;;;;11.40;9.10;;;22.30;51.70;;;;;;222453;1253;25448;-49
2023/04/06 04:28:13;;;;;;;12.60;9.90;;;22.40;51.30;;;;;;222506;1263;22613;-45
2023/04/06 04:33:19;;;;;;;11.80;8.90;;;22.40;51.00;;;;;;222429;1269;25450;-46
2023/04/06 04:38:24;;;;;;;10.00;8.70;;;22.40;51.10;;;;;;222356;1269;25201;-49
2023/04/06 04:43:30;;;;;;;12.10;9.10;;;22.40;51.00;;;;;;222397;1263;22494;-50
2023/04/06 04:48:36;;;;;;;12.80;9.60;;;22.40;50.90;;;;;;222311;1262;22515;-50
2023/04/06 04:53:42;;;;;;;11.30;9.50;;;22.30;51.00;;;;;;222391;1262;22515;-47
2023/04/06 04:58:55;;;;;;;9.90;8.80;;;22.40;50.70;;;;;;222403;1246;22529;-48
2023/04/06 05:04:00;;;;;;;11.80;8.80;;;22.40;50.70;;;;;;222356;1263;22552;-52
2023/04/06 05:09:05;;;;;;;13.90;9.90;;;22.40;50.60;;;;;;222368;1262;25339;-50
2023/04/06 05:14:10;;;;;;;10.90;8.70;;;22.40;50.90;;;;;;222226;1265;22511;-51
2023/04/06 05:19:15;;;;;;;10.60;8.10;;;22.30;50.90;;;;;;222393;1265;22515;-47
2023/04/06 05:24:20;;;;;;;10.80;8.90;;;22.30;51.10;;;;;;222371;1258;22506;-45
2023/04/06 05:29:26;;;;;;;11.10;9.00;;;22.30;50.80;;;;;;222313;1254;24594;-53
2023/04/06 05:34:30;;;;;;;13.30;10.10;;;22.30;51.30;;;;;;222183;1263;22533;-47
2023/04/06 05:39:37;;;;;;;12.20;9.40;;;22.40;51.00;;;;;;222309;1253;22527;-52
2023/04/06 05:44:42;;;;;;;14.20;9.60;;;22.40;51.30;;;;;;222255;1264;23897;-48
2023/04/06 05:49:49;;;;;;;13.20;9.10;;;22.30;51.60;;;;;;222035;1257;22572;-48
2023/04/06 05:55:03;;;;;;;19.60;9.80;;;22.40;54.30;;;;;;222247;1269;22512;-48
2023/04/06 06:00:09;;;;;;;16.00;9.40;;;22.40;55.50;;;;;;222091;1258;24475;-53
2023/04/06 06:05:19;;;;;;;20.90;10.10;;;22.50;55.00;;;;;;222130;1268;23288;-53
2023/04/06 06:10:24;;;;;;;20.70;10.80;;;22.60;54.90;;;;;;222330;1262;22552;-50
2023/04/06 06:15:29;;;;;;;14.70;10.20;;;22.60;54.90;;;;;;222419;1265;22642;-49
2023/04/06 06:20:33;;;;;;;19.30;10.40;;;22.70;54.00;;;;;;222311;1262;24173;-51
2023/04/06 06:25:39;;;;;;;13.20;10.20;;;22.70;53.80;;;;;;222270;1254;182647;-51
2023/04/06 06:30:45;;;;;;;14.50;10.20;;;22.60;53.70;;;;;;222229;1246;22653;-53
2023/04/06 06:35:52;;;;;;;17.70;10.50;;;22.60;53.50;;;;;;222401;1265;24212;-50
2023/04/06 06:40:59;;;;;;;14.90;9.80;;;22.70;54.50;;;;;;222105;1263;22592;-47
2023/04/06 06:46:07;;;;;;;20.00;9.50;;;22.70;54.00;;;;;;222232;1249;23943;-47
2023/04/06 06:51:15;;;;;;;20.20;9.90;;;22.70;53.60;;;;;;222184;1265;25260;-48
2023/04/06 06:56:19;;;;;;;22.40;10.50;;;22.70;53.80;;;;;;222536;1263;22566;-48
2023/04/06 07:01:23;;;;;;;20.10;9.70;;;22.70;53.40;;;;;;222419;1262;22928;-49
2023/04/06 07:06:29;;;;;;;22.70;10.40;;;22.70;53.80;;;;;;222099;1259;22511;-52
2023/04/06 07:11:34;;;;;;;17.90;10.30;;;22.60;52.80;;;;;;222141;1264;23073;-50
2023/04/06 07:16:38;;;;;;;19.30;11.10;;;22.60;52.70;;;;;;223157;1265;22661;-51
2023/04/06 07:21:42;;;;;;;23.90;10.70;;;22.60;52.70;;;;;;222355;1262;25347;-49
2023/04/06 07:26:46;;;;;;;16.80;10.10;;;22.40;53.20;;;;;;222432;1263;24290;-53
2023/04/06 07:31:51;;;;;;;17.50;10.50;;;22.40;53.00;;;;;;222304;1257;24225;-51
2023/04/06 07:36:56;;;;;;;19.00;10.90;;;22.40;52.50;;;;;;222377;1262;22587;-49
2023/04/06 07:42:02;;;;;;;16.00;10.50;;;22.40;53.20;;;;;;222233;1265;22513;-49
2023/04/06 07:47:06;;;;;;;14.90;10.60;;;22.30;53.30;;;;;;222124;1262;22563;-50
2023/04/06 07:52:10;;;;;;;20.00;12.10;;;22.30;52.40;;;;;;222278;1267;22520;-52
2023/04/06 07:57:16;;;;;;;11.80;10.40;;;22.10;52.60;;;;;;222394;1262;22527;-52
2023/04/06 08:02:21;;;;;;;12.80;10.50;;;22.30;52.30;;;;;;222538;1254;22523;-51
2023/04/06 08:07:25;;;;;;;13.70;10.40;;;22.10;52.70;;;;;;222031;1263;24171;-51
2023/04/06 08:12:30;;;;;;;16.20;10.80;;;22.10;52.30;;;;;;222302;1269;24223;-48
2023/04/06 08:17:34;;;;;;;13.50;10.50;;;22.10;52.20;;;;;;222147;1263;25266;-53
2023/04/06 08:22:39;;;;;;;15.50;10.10;;;22.00;52.30;;;;;;222202;1264;22521;-54
2023/04/06 08:27:43;;;;;;;15.00;10.70;;;22.00;52.60;;;;;;222131;1262;24198;-52
2023/04/06 08:32:47;;;;;;;15.00;10.70;;;21.90;52.30;;;;;;222285;1264;22528;-51
2023/04/06 08:37:51;;;;;;;13.60;10.70;;;21.90;52.40;;;;;;222312;1254;22511;-48
2023/04/06 08:42:56;;;;;;;13.90;10.30;;;21.90;52.30;;;;;;222246;1263;25497;-51
2023/04/06 08:48:02;;;;;;;14.90;10.50;;;21.80;52.20;;;;;;222250;1263;25229;-51
2023/04/06 08:53:07;;;;;;;12.90;9.10;;;21.80;52.20;;;;;;222274;1264;24334;-52
2023/04/06 08:58:11;;;;;;;16.20;11.10;;;21.90;52.10;;;;;;222289;1269;22541;-53
2023/04/06 09:03:28;;;;;;;12.70;10.00;;;21.80;51.60;;;;;;221990;1269;22511;-49
2023/04/06 09:08:34;;;;;;;12.80;9.20;;;21.90;51.90;;;;;;222269;1269;23144;-51
2023/04/06 09:13:54;;;;;;;13.90;9.10;;;21.90;51.80;;;;;;222155;1265;23988;-56
2023/04/06 09:19:04;;;;;;;13.20;8.80;;;21.90;51.60;;;;;;222361;1269;25290;-50
2023/04/06 09:24:09;;;;;;;13.40;9.40;;;21.90;51.60;;;;;;222314;1269;25371;-54
2023/04/06 09:29:26;;;;;;;12.50;8.90;;;21.90;51.50;;;;;;222177;1266;25331;-53
2023/04/06 09:34:31;;;;;;;11.20;8.60;;;21.90;51.30;;;;;;221947;1260;22523;-52
2023/04/06 09:39:35;;;;;;;11.50;8.80;;;21.90;51.50;;;;;;222028;1267;25281;-53
2023/04/06 09:44:39;;;;;;;12.00;8.80;;;22.00;51.30;;;;;;222084;1264;22518;-53
2023/04/06 09:49:46;;;;;;;11.20;7.80;;;21.90;51.30;;;;;;222185;1264;24391;-55
2023/04/06 09:54:50;;;;;;;11.60;8.90;;;22.00;51.40;;;;;;222198;1269;24188;-55
2023/04/06 10:00:09;;;;;;;10.80;7.60;;;21.90;51.40;;;;;;222142;1266;22523;-55
2023/04/06 10:05:22;;;;;;;10.40;8.50;;;21.90;51.90;;;;;;222336;1263;22511;-53
2023/04/06 10:10:28;;;;;;;8.80;7.80;;;22.00;52.40;;;;;;222306;1263;25348;-52
2023/04/06 10:15:33;;;;;;;8.50;7.30;;;22.00;52.50;;;;;;222124;1266;22557;-55
2023/04/06 10:20:48;;;;;;;10.60;8.10;;;21.90;52.50;;;;;;222307;1263;22666;-54
2023/04/06 10:25:54;;;;;;;11.40;8.00;;;21.90;53.00;;;;;;222291;1256;22512;-54
2023/04/06 10:31:00;;;;;;;9.10;8.20;;;21.90;51.80;;;;;;222429;1265;25597;-53
2023/04/06 10:36:25;;;;;;;9.10;7.90;;;21.90;52.50;;;;;;222178;1256;26609;-53
2023/04/06 10:41:40;;;;;;;9.20;7.80;;;22.00;52.40;;;;;;222388;1263;25383;-55
2023/04/06 10:47:00;;;;;;;9.10;7.30;;;22.00;52.60;;;;;;222328;1269;25309;-55
2023/04/06 10:52:06;;;;;;;11.20;7.80;;;22.00;52.50;;;;;;222285;1269;22647;-56
2023/04/06 10:57:10;;;;;;;9.40;7.60;;;22.00;52.40;;;;;;222340;1256;24194;-54
2023/04/06 11:02:21;;;;;;;7.70;6.90;;;22.00;52.50;;;;;;222294;1262;22517;-53
2023/04/06 11:07:28;;;;;;;7.20;6.40;;;22.00;52.50;;;;;;222170;1264;22523;-53
2023/04/06 11:12:34;;;;;;;8.80;6.40;;;22.10;52.40;;;;;;222143;1256;22521;-54
2023/04/06 11:17:39;;;;;;;9.70;7.20;;;22.10;52.60;;;;;;222402;1262;22520;-53
2023/04/06 11:22:52;;;;;;;11.00;7.00;;;22.10;52.90;;;;;;222338;1254;24358;-58
2023/04/06 11:27:57;;;;;;;7.00;6.30;;;22.20;52.70;;;;;;222499;1264;22846;-54
2023/04/06 11:33:02;;;;;;;7.90;6.80;;;22.10;52.80;;;;;;222331;1263;25217;-54
2023/04/06 11:38:06;;;;;;;8.40;6.60;;;22.20;53.10;;;;;;222402;1262;24032;-56
2023/04/06 11:43:11;;;;;;;6.70;6.00;;;22.20;52.50;;;;;;222403;1264;24316;-54
2023/04/06 11:48:21;;;;;;;8.70;6.40;;;22.20;52.70;;;;;;222403;1254;22593;-56
2023/04/06 11:53:29;;;;;;;8.50;6.20;;;22.20;53.10;;;;;;222401;1264;24186;-57
2023/04/06 11:58:33;;;;;;;7.10;6.50;;;22.20;53.00;;;;;;222406;1264;23597;-58
2023/04/06 12:03:37;;;;;;;7.80;6.40;;;22.20;53.10;;;;;;222433;1254;22659;-52
2023/04/06 12:08:42;;;;;;;6.70;6.00;;;22.20;53.10;;;;;;222458;1254;24196;-53
2023/04/06 12:13:46;;;;;;;6.80;5.80;;;22.20;53.00;;;;;;222420;1264;25436;-51
2023/04/06 12:18:51;;;;;;;6.80;6.10;;;22.20;53.10;;;;;;222484;1264;22529;-50
2023/04/06 12:23:55;;;;;;;8.30;6.40;;;22.20;53.00;;;;;;222583;1263;22522;-53
2023/04/06 12:29:08;;;;;;;7.70;6.30;;;22.20;53.00;;;;;;222277;1245;22516;-53
2023/04/06 12:34:12;;;;;;;7.10;6.00;;;22.30;53.00;;;;;;222312;1256;24046;-53
2023/04/06 12:39:18;;;;;;;6.70;6.00;;;22.30;53.10;;;;;;222525;1254;25478;-51
2023/04/06 12:44:26;;;;;;;7.30;6.20;;;22.20;53.00;;;;;;222658;1255;22512;-52
2023/04/06 12:49:31;;;;;;;6.70;6.00;;;22.30;53.20;;;;;;222487;1255;24256;-54
2023/04/06 12:54:37;;;;;;;6.00;5.50;;;22.40;52.70;;;;;;222459;1264;22531;-53
2023/04/06 12:59:46;;;;;;;7.20;6.50;;;22.40;53.30;;;;;;222505;1254;22738;-52
2023/04/06 13:04:52;;;;;;;6.50;5.80;;;22.40;52.80;;;;;;222519;1267;25288;-59
2023/04/06 13:09:56;;;;;;;8.80;6.10;;;22.40;52.60;;;;;;222459;1254;22606;-53
2023/04/06 13:15:00;;;;;;;6.20;5.30;;;22.50;52.60;;;;;;222378;1264;22522;-54
2023/04/06 13:20:06;;;;;;;7.60;5.30;;;22.50;52.50;;;;;;222312;1248;24400;-54
2023/04/06 13:25:12;;;;;;;14.20;6.90;;;22.40;52.90;;;;;;222396;1269;24940;-50
2023/04/06 13:30:16;;;;;;;9.80;5.90;;;22.40;52.30;;;;;;221027;1268;22608;-53
2023/04/06 13:35:20;;;;;;;7.20;5.70;;;22.30;52.60;;;;;;221231;1267;25220;-52
2023/04/06 13:40:25;;;;;;;7.50;5.30;;;22.40;52.40;;;;;;221286;1269;24029;-52
2023/04/06 13:45:29;;;;;;;6.60;5.40;;;22.40;52.60;;;;;;221349;1264;22786;-50
2023/04/06 13:50:36;;;;;;;6.10;5.20;;;22.30;52.50;;;;;;222442;1263;22526;-51
2023/04/06 13:55:42;;;;;;;6.90;5.30;;;22.30;52.60;;;;;;222423;1263;23881;-46
2023/04/06 14:00:46;;;;;;;5.50;4.90;;;22.30;52.50;;;;;;222409;1264;25170;-52
2023/04/06 14:05:54;;;;;;;5.70;5.20;;;22.20;52.70;;;;;;222229;1263;22613;-53
2023/04/06 14:11:12;;;;;;;6.00;5.40;;;22.20;52.50;;;;;;222273;1254;22602;-57
2023/04/06 14:16:19;;;;;;;6.70;4.60;;;22.20;52.40;;;;;;222236;1262;22607;-52
2023/04/06 14:21:23;;;;;;;5.70;4.80;;;22.20;52.40;;;;;;222246;1264;22616;-52
2023/04/06 14:26:31;;;;;;;5.10;4.60;;;22.10;52.70;;;;;;222184;1260;25268;-50
2023/04/06 14:31:36;;;;;;;5.80;5.20;;;22.10;52.60;;;;;;222416;1260;26527;-52
2023/04/06 14:36:42;;;;;;;5.30;4.40;;;22.10;52.60;;;;;;222315;1257;22650;-52
2023/04/06 14:41:47;;;;;;;5.80;4.40;;;22.10;52.60;;;;;;222772;1262;22523;-55
2023/04/06 14:46:53;;;;;;;5.50;5.00;;;22.00;52.50;;;;;;222646;1261;24199;-54
2023/04/06 14:51:59;;;;;;;5.90;4.70;;;22.00;52.50;;;;;;222678;1264;23878;-51
2023/04/06 14:57:04;;;;;;;6.70;4.70;;;22.00;52.60;;;;;;222607;1262;24339;-54
2023/04/06 15:02:08;;;;;;;7.60;4.60;;;22.10;52.80;;;;;;222442;1260;23883;-51
2023/04/06 15:07:14;;;;;;;11.90;4.80;;;22.20;52.50;;;;;;222341;1255;25425;-52
2023/04/06 15:12:19;;;;;;;11.10;4.90;;;22.10;52.90;;;;;;222107;1255;22511;-53
2023/04/06 15:17:26;;;;;;;5.20;4.70;;;22.20;53.50;;;;;;222428;1248;22750;-51
2023/04/06 15:22:31;;;;;;;10.90;5.00;;;22.10;52.90;;;;;;222678;1245;25446;-50
2023/04/06 15:27:36;;;;;;;7.20;4.90;;;22.10;53.60;;;;;;222522;1244;22726;-49
2023/04/06 15:32:43;;;;;;;6.30;4.70;;;22.10;53.90;;;;;;222277;1254;22552;-54
2023/04/06 15:37:48;;;;;;;5.30;3.90;;;22.20;54.50;;;;;;222576;1256;22640;-53
2023/04/06 15:42:52;;;;;;;6.40;4.40;;;22.30;52.90;;;;;;222451;1262;22519;-50
2023/04/06 15:47:56;;;;;;;8.60;4.30;;;22.10;53.20;;;;;;222421;1262;22611;-50
2023/04/06 15:53:02;;;;;;;7.30;4.50;;;22.10;53.60;;;;;;221955;1257;22638;-47
2023/04/06 15:58:07;;;;;;;10.10;4.50;;;22.10;53.40;;;;;;221757;1258;24280;-51
2023/04/06 16:03:11;;;;;;;9.50;4.20;;;22.10;53.20;;;;;;222026;1261;22532;-51
2023/04/06 16:08:18;;;;;;;8.20;4.20;;;22.10;53.30;;;;;;222025;1265;22673;-55
2023/04/06 16:13:23;;;;;;;13.00;4.70;;;22.10;53.30;;;;;;221700;1265;24048;-48
2023/04/06 16:18:33;;;;;;;8.30;4.40;;;22.20;53.30;;;;;;226672;1265;25372;-56
2023/04/06 16:23:49;;;;;;;6.90;4.40;;;22.10;53.60;;;;;;221867;1257;22686;-56
2023/04/06 16:28:58;;;;;;;7.10;4.30;;;22.20;53.00;;;;;;222096;1263;22617;-46
2023/04/06 16:34:02;;;;;;;11.20;4.00;;;22.20;53.10;;;;;;222368;1262;22608;-49
2023/04/06 16:39:08;;;;;;;9.40;4.10;;;22.10;53.90;;;;;;222346;1262;24149;-45
2023/04/06 16:44:12;;;;;;;4.80;4.10;;;22.00;53.90;;;;;;222257;1254;22549;-48
2023/04/06 16:49:19;;;;;;;8.20;4.70;;;21.90;53.80;;;;;;222534;1257;23910;-48
2023/04/06 16:54:24;;;;;;;7.20;4.70;;;21.70;54.30;;;;;;222584;1256;24273;-44
2023/04/06 16:59:29;;;;;;;6.10;4.60;;;21.80;54.40;;;;;;222584;1260;26704;-45
2023/04/06 17:04:36;;;;;;;6.30;4.50;;;21.80;54.10;;;;;;222624;1262;25330;-51
2023/04/06 17:09:40;;;;;;;7.90;4.10;;;21.70;54.30;;;;;;222306;1247;23068;-45
2023/04/06 17:14:46;;;;;;;7.20;4.80;;;21.70;54.20;;;;;;222144;1254;25317;-47
2023/04/06 17:19:50;;;;;;;5.30;4.00;;;21.70;54.20;;;;;;221964;1260;23878;-49
2023/04/06 17:24:54;;;;;;;8.10;4.20;;;21.70;54.20;;;;;;222281;1262;22660;-52
2023/04/06 17:30:05;;;;;;;7.30;3.90;;;21.60;54.30;;;;;;222181;1262;22623;-47
2023/04/06 17:35:10;;;;;;;15.90;5.30;;;21.50;54.50;;;;;;222443;1263;22616;-47
2023/04/06 17:40:14;;;;;;;7.10;4.20;;;21.50;54.90;;;;;;222581;1260;24240;-49
2023/04/06 17:45:19;;;;;;;6.40;4.40;;;21.60;54.30;;;;;;222495;1247;22674;-49
2023/04/06 17:50:23;;;;;;;7.00;4.30;;;22.10;53.00;;;;;;222494;1256;24444;-49
2023/04/06 17:55:28;;;;;;;6.00;3.80;;;22.50;51.80;;;;;;222507;1262;25316;-46
2023/04/06 18:00:32;;;;;;;7.10;3.70;;;22.70;51.30;;;;;;222715;1262;22520;-51
2023/04/06 18:05:37;;;;;;;8.60;4.30;;;22.90;51.20;;;;;;222296;1262;22735;-49
2023/04/06 18:10:44;;;;;;;4.80;3.90;;;23.00;50.70;;;;;;222756;1262;24147;-46
2023/04/06 18:15:50;;;;;;;8.50;4.50;;;23.10;50.60;;;;;;222309;1262;24324;-45
2023/04/06 18:20:57;;;;;;;7.70;5.90;;;23.10;50.40;;;;;;222551;1256;24222;-51
2023/04/06 18:26:14;;;;;;;8.90;5.60;;;23.20;51.00;;;;;;222655;1262;167195;-56
2023/04/06 18:31:20;;;;;;;11.90;5.10;;;23.10;50.90;;;;;;222503;1262;22508;-58
2023/04/06 18:36:25;;;;;;;10.50;5.30;;;23.10;51.50;;;;;;222372;1260;22923;-51
2023/04/06 18:41:30;;;;;;;6.90;4.90;;;23.30;50.70;;;;;;222477;1262;23007;-51
2023/04/06 18:46:35;;;;;;;6.10;4.50;;;23.30;50.60;;;;;;222146;1255;22613;-52
2023/04/06 18:51:41;;;;;;;7.00;5.30;;;23.30;51.10;;;;;;222480;1254;22598;-48
2023/04/06 18:56:47;;;;;;;8.00;4.60;;;23.20;50.70;;;;;;222627;1261;22613;-54
2023/04/06 19:01:59;;;;;;;6.90;4.60;;;23.20;50.60;;;;;;222559;1255;22586;-50
2023/04/06 19:07:05;;;;;;;8.00;5.30;;;23.10;51.60;;;;;;222179;1255;23049;-46
2023/04/06 19:12:10;;;;;;;7.10;4.70;;;23.10;51.30;;;;;;222566;1265;22627;-47
2023/04/06 19:17:14;;;;;;;7.00;4.70;;;23.00;51.60;;;;;;222433;1260;25354;-51
2023/04/06 19:22:21;;;;;;;11.20;4.80;;;22.80;51.80;;;;;;222501;1259;24231;-49
2023/04/06 19:27:27;;;;;;;10.50;4.90;;;22.70;52.10;;;;;;222431;1255;25249;-49
2023/04/06 19:32:32;;;;;;;11.90;4.30;;;22.70;52.10;;;;;;222385;1262;22724;-50
2023/04/06 19:37:37;;;;;;;7.20;4.70;;;22.60;52.50;;;;;;222626;1262;23265;-50
2023/04/06 19:42:42;;;;;;;8.30;4.30;;;22.70;53.30;;;;;;222469;1260;25326;-48
2023/04/06 19:47:46;;;;;;;8.10;4.80;;;22.60;53.10;;;;;;222643;1262;22638;-55
2023/04/06 19:52:52;;;;;;;12.20;5.00;;;22.50;52.60;;;;;;222507;1253;22511;-49
2023/04/06 19:57:56;;;;;;;10.20;4.90;;;22.40;52.70;;;;;;222451;1245;22524;-55
2023/04/06 20:03:00;;;;;;;13.90;5.40;;;22.40;53.30;;;;;;222480;1262;25599;-48
2023/04/06 20:08:05;;;;;;;17.60;4.70;;;22.30;53.50;;;;;;222105;1265;22521;-51
2023/04/06 20:13:09;;;;;;;11.50;4.90;;;22.30;53.00;;;;;;222588;1255;22626;-47
2023/04/06 20:18:14;;;;;;;10.70;5.70;;;22.30;53.40;;;;;;222216;1254;25523;-45
2023/04/06 20:23:18;;;;;;;8.50;4.70;;;22.20;52.50;;;;;;222574;1246;22534;-48
2023/04/06 20:28:22;;;;;;;13.20;5.20;;;22.20;52.40;;;;;;222573;1256;23913;-44
2023/04/06 20:33:27;;;;;;;12.50;4.90;;;22.20;52.40;;;;;;222472;1262;22525;-48
2023/04/06 20:38:33;;;;;;;7.40;4.40;;;22.20;52.10;;;;;;222264;1265;26663;-44
2023/04/06 20:43:38;;;;;;;10.50;4.30;;;22.10;52.20;;;;;;222423;1262;22508;-47
2023/04/06 20:48:44;;;;;;;7.70;4.70;;;22.10;52.00;;;;;;222403;1262;22524;-46
2023/04/06 20:53:51;;;;;;;8.40;4.30;;;22.00;52.30;;;;;;222608;1262;24412;-44
2023/04/06 20:58:57;;;;;;;9.40;4.80;;;22.00;52.40;;;;;;222623;1265;22524;-49
2023/04/06 21:04:04;;;;;;;8.30;4.70;;;22.10;55.80;;;;;;222627;1262;22531;-44
2023/04/06 21:09:11;;;;;;;8.60;4.60;;;22.10;56.30;;;;;;222698;1262;22519;-46
2023/04/06 21:14:17;;;;;;;7.60;5.00;;;22.10;55.20;;;;;;222782;1262;24229;-43
2023/04/06 21:19:29;;;;;;;8.20;4.50;;;22.10;55.10;;;;;;222399;1258;26030;-46
2023/04/06 21:24:40;;;;;;;6.90;4.40;;;22.00;55.50;;;;;;222635;1262;23905;-44
2023/04/06 21:29:49;;;;;;;9.40;5.00;;;22.00;55.40;;;;;;222363;1256;22532;-47
2023/04/06 21:34:54;;;;;;;6.20;4.80;;;22.10;55.10;;;;;;222367;1261;23021;-49
2023/04/06 21:40:01;;;;;;;8.50;4.80;;;22.00;55.20;;;;;;222437;1262;22637;-44
2023/04/06 21:45:07;;;;;;;6.60;4.40;;;21.90;55.10;;;;;;222194;1262;22515;-48
2023/04/06 21:50:13;;;;;;;6.10;4.90;;;21.90;55.10;;;;;;222311;1262;22512;-46
2023/04/06 21:55:18;;;;;;;6.10;4.10;;;21.90;55.30;;;;;;222287;1253;24102;-44
2023/04/06 22:00:24;;;;;;;8.10;4.60;;;21.90;55.20;;;;;;222347;1255;22974;-43
2023/04/06 22:05:28;;;;;;;6.20;4.00;;;21.90;55.10;;;;;;222396;1256;22509;-44
2023/04/06 22:10:33;;;;;;;6.40;4.60;;;21.80;55.70;;;;;;222366;1262;22525;-44
2023/04/06 22:15:38;;;;;;;6.30;4.40;;;22.10;55.00;;;;;;222445;1255;24082;-43
2023/04/06 22:20:42;;;;;;;10.00;4.90;;;22.50;53.80;;;;;;222419;1261;24254;-44
2023/04/06 22:25:47;;;;;;;8.20;4.80;;;22.80;53.20;;;;;;222270;1253;25901;-44
2023/04/06 22:30:51;;;;;;;7.80;4.60;;;22.90;52.80;;;;;;222084;1262;24356;-43
2023/04/06 22:35:55;;;;;;;5.50;4.20;;;23.00;52.70;;;;;;222376;1258;22523;-45
2023/04/06 22:40:59;;;;;;;7.00;4.10;;;23.10;52.80;;;;;;222287;1261;23913;-50
2023/04/06 22:46:04;;;;;;;5.00;3.90;;;23.20;52.40;;;;;;222188;1255;25255;-47
2023/04/06 22:51:08;;;;;;;9.30;4.20;;;23.10;52.50;;;;;;222149;1257;25344;-45
2023/04/06 22:56:12;;;;;;;11.70;4.30;;;23.00;53.30;;;;;;222300;1262;22511;-48
2023/04/06 23:01:16;;;;;;;5.60;3.90;;;23.00;53.20;;;;;;222251;1245;22753;-44
2023/04/06 23:06:21;;;;;;;5.10;4.10;;;23.10;53.10;;;;;;222310;1262;22514;-50
2023/04/06 23:11:25;;;;;;;5.70;4.00;;;23.10;53.20;;;;;;222337;1258;22650;-43
2023/04/06 23:16:29;;;;;;;7.60;4.80;;;23.20;52.80;;;;;;222088;1257;23902;-43
2023/04/06 23:21:33;;;;;;;7.40;4.40;;;23.30;52.60;;;;;;222139;1263;22517;-44
2023/04/06 23:26:43;;;;;;;9.50;4.30;;;23.30;52.30;;;;;;227079;1254;22544;-45
2023/04/06 23:31:51;;;;;;;5.80;3.90;;;23.50;52.00;;;;;;222191;1261;24238;-44
2023/04/06 23:36:59;;;;;;;6.10;4.10;;;23.60;51.80;;;;;;222517;1262;22517;-45
2023/04/06 23:42:04;;;;;;;4.30;3.90;;;23.40;51.90;;;;;;222186;1263;22540;-47
2023/04/06 23:47:08;;;;;;;7.00;4.00;;;23.30;52.20;;;;;;227303;1254;24189;-44
2023/04/06 23:52:12;;;;;;;5.50;3.90;;;23.40;52.00;;;;;;226435;1261;22522;-44
2023/04/06 23:57:17;;;;;;;7.50;4.20;;;23.40;52.10;;;;;;222080;1261;23106;-43
